createdAt,value
2023-03-30T00:01:21.636Z,85.07
2023-03-30T00:03:50.296Z,83.37
2023-03-30T00:06:21.913Z,87.17
2023-03-30T00:08:53.213Z,90.33
2023-03-30T00:11:23.099Z,87.73
2023-03-30T00:13:51.521Z,86.43
2023-03-30T00:16:21.736Z,87.83
2023-03-30T00:18:50.498Z,83.67
2023-03-30T00:21:20.633Z,86.90
2023-03-30T00:23:48.893Z,87.17
2023-03-30T00:26:17.558Z,92.60
2023-03-30T00:28:45.338Z,91.57
2023-03-30T00:31:12.949Z,93.37
2023-03-30T00:33:46.525Z,94.03
2023-03-30T00:36:16.221Z,92.57
2023-03-30T00:38:45.450Z,97.40
2023-03-30T00:41:13.247Z,95.17
2023-03-30T00:43:58.114Z,93.57
2023-03-30T00:46:25.835Z,93.77
2023-03-30T00:48:58.209Z,98.20
2023-03-30T00:51:28.661Z,98.50
2023-03-30T00:54:01.016Z,94.77
2023-03-30T00:56:31.309Z,95.17
2023-03-30T00:58:59.238Z,96.13
2023-03-30T01:01:28.670Z,95.53
2023-03-30T01:04:00.809Z,94.17
2023-03-30T01:06:30.018Z,96.53
2023-03-30T01:08:58.988Z,98.97
2023-03-30T01:11:27.761Z,98.03
2023-03-30T01:13:59.389Z,97.77
2023-03-30T01:16:33.517Z,97.90
2023-03-30T01:19:19.854Z,94.90
2023-03-30T01:22:36.808Z,93.50
2023-03-30T01:25:49.200Z,88.67
2023-03-30T01:28:28.495Z,91.07
2023-03-30T01:31:12.685Z,89.80
2023-03-30T01:34:03.739Z,91.00
2023-03-30T01:36:57.794Z,90.30
2023-03-30T01:39:39.692Z,92.00
2023-03-30T01:42:14.410Z,93.50
2023-03-30T01:44:48.246Z,92.77
2023-03-30T01:47:20.122Z,99.00
2023-03-30T01:49:57.319Z,94.67
2023-03-30T01:52:31.839Z,94.63
2023-03-30T01:55:04.624Z,96.70
2023-03-30T01:57:38.823Z,95.00
2023-03-30T02:00:13.394Z,97.77
2023-03-30T02:02:45.140Z,99.13
2023-03-30T02:05:18.043Z,99.43
2023-03-30T02:07:50.823Z,92.43
2023-03-30T02:10:22.275Z,93.77
2023-03-30T02:12:52.112Z,95.87
2023-03-30T02:15:20.676Z,94.33
2023-03-30T02:17:49.345Z,92.93
2023-03-30T02:20:18.548Z,92.97
2023-03-30T02:22:47.258Z,93.43
2023-03-30T02:25:15.623Z,96.23
2023-03-30T02:27:44.796Z,95.23
2023-03-30T02:30:13.178Z,98.23
2023-03-30T02:32:43.498Z,100.53
2023-03-30T02:35:31.671Z,99.20
2023-03-30T02:38:17.639Z,99.80
2023-03-30T02:40:55.089Z,101.43
2023-03-30T02:43:32.861Z,96.93
2023-03-30T02:46:16.764Z,98.17
2023-03-30T02:48:56.210Z,102.90
2023-03-30T02:51:36.847Z,97.10
2023-03-30T02:54:15.917Z,99.43
2023-03-30T02:56:48.274Z,95.60
2023-03-30T02:59:20.958Z,89.97
2023-03-30T03:01:54.226Z,88.73
2023-03-30T03:04:23.570Z,94.23
2023-03-30T03:06:52.940Z,89.20
2023-03-30T03:09:21.023Z,92.47
2023-03-30T03:11:48.754Z,92.53
2023-03-30T03:14:17.770Z,92.73
2023-03-30T03:16:45.487Z,91.00
2023-03-30T03:19:13.152Z,89.70
2023-03-30T03:21:40.925Z,91.97
2023-03-30T03:24:08.822Z,88.87
2023-03-30T03:26:36.642Z,88.00
2023-03-30T03:29:04.298Z,92.53
2023-03-30T03:31:33.301Z,92.47
2023-03-30T03:34:01.152Z,92.20
2023-03-30T03:36:28.842Z,93.57
2023-03-30T03:38:56.503Z,90.23
2023-03-30T03:41:24.113Z,90.17
2023-03-30T03:43:51.834Z,85.60
2023-03-30T03:46:19.507Z,88.10
2023-03-30T03:48:48.498Z,88.93
2023-03-30T03:51:16.481Z,88.27
2023-03-30T03:53:44.106Z,87.13
2023-03-30T03:56:12.645Z,89.10
2023-03-30T03:58:40.521Z,82.23
2023-03-30T04:01:08.333Z,84.67
2023-03-30T04:03:36.262Z,83.70
2023-03-30T04:06:05.626Z,84.03
2023-03-30T04:08:33.493Z,80.50
2023-03-30T04:11:07.964Z,81.30
2023-03-30T04:13:36.006Z,82.00
2023-03-30T04:16:03.735Z,83.37
2023-03-30T04:18:33.465Z,85.30
2023-03-30T04:21:03.339Z,83.67
2023-03-30T04:23:33.710Z,79.77
2023-03-30T04:26:02.527Z,80.43
2023-03-30T04:28:31.718Z,79.30
2023-03-30T04:31:00.371Z,77.70
2023-03-30T04:33:28.830Z,79.90
2023-03-30T04:35:56.875Z,74.63
2023-03-30T04:38:24.520Z,80.13
2023-03-30T04:40:53.975Z,78.87
2023-03-30T04:43:23.441Z,77.87
2023-03-30T04:45:51.843Z,79.07
2023-03-30T04:48:20.703Z,84.10
2023-03-30T04:50:50.664Z,76.27
2023-03-30T04:53:19.633Z,80.07
2023-03-30T04:55:49.909Z,80.00
2023-03-30T04:58:19.257Z,76.97
2023-03-30T05:00:47.363Z,79.37
2023-03-30T05:03:15.156Z,79.43
2023-03-30T05:05:43.166Z,79.97
2023-03-30T05:08:10.761Z,77.80
2023-03-30T05:10:38.559Z,79.10
2023-03-30T05:13:06.908Z,83.13
2023-03-30T05:15:35.934Z,79.13
2023-03-30T05:18:03.603Z,79.60
2023-03-30T05:20:31.450Z,82.07
2023-03-30T05:22:59.201Z,77.17
2023-03-30T05:25:27.225Z,80.70
2023-03-30T05:27:54.841Z,81.87
2023-03-30T05:30:22.467Z,80.30
2023-03-30T05:32:51.471Z,80.50
2023-03-30T05:35:19.089Z,80.33
2023-03-30T05:37:46.682Z,76.90
2023-03-30T05:40:14.461Z,77.93
2023-03-30T05:42:42.224Z,79.77
2023-03-30T05:45:11.125Z,81.13
2023-03-30T05:47:38.722Z,80.07
2023-03-30T05:50:09.311Z,80.37
2023-03-30T05:52:37.013Z,80.93
2023-03-30T05:55:05.010Z,79.87
2023-03-30T05:57:33.122Z,79.10
2023-03-30T06:00:00.793Z,81.27
2023-03-30T06:02:28.434Z,78.57
2023-03-30T06:04:56.230Z,80.20
2023-03-30T06:07:25.384Z,78.60
2023-03-30T06:09:53.179Z,79.93
2023-03-30T06:12:21.226Z,78.80
2023-03-30T06:14:48.826Z,81.30
2023-03-30T06:17:16.488Z,77.87
2023-03-30T06:19:44.135Z,77.90
2023-03-30T06:22:11.722Z,77.07
2023-03-30T06:24:40.971Z,79.80
2023-03-30T06:27:09.190Z,78.07
2023-03-30T06:29:36.834Z,78.23
2023-03-30T06:32:04.957Z,79.00
2023-03-30T06:34:32.753Z,75.47
2023-03-30T06:37:01.152Z,74.73
2023-03-30T06:39:29.656Z,72.30
2023-03-30T06:41:58.615Z,77.23
2023-03-30T06:44:27.137Z,74.20
2023-03-30T06:46:54.712Z,73.97
2023-03-30T06:49:22.782Z,68.23
2023-03-30T06:51:50.445Z,72.13
2023-03-30T06:54:20.159Z,67.50
2023-03-30T06:56:47.823Z,68.00
2023-03-30T06:59:17.407Z,65.00
2023-03-30T07:01:45.664Z,63.30
2023-03-30T07:04:13.345Z,62.93
2023-03-30T07:06:40.979Z,62.80
2023-03-30T07:09:08.825Z,62.43
2023-03-30T07:11:36.550Z,62.20
2023-03-30T07:14:05.465Z,65.10
2023-03-30T07:16:34.517Z,64.63
2023-03-30T07:19:02.352Z,65.43
2023-03-30T07:21:29.946Z,67.23
2023-03-30T07:23:58.108Z,70.47
2023-03-30T07:26:25.796Z,70.50
2023-03-30T07:28:53.380Z,69.57
2023-03-30T07:31:21.873Z,68.13
2023-03-30T07:33:51.851Z,68.30
2023-03-30T07:36:19.976Z,72.50
2023-03-30T07:38:47.736Z,72.80
2023-03-30T07:41:17.910Z,73.70
2023-03-30T07:43:45.895Z,77.50
2023-03-30T07:46:13.617Z,76.50
2023-03-30T07:48:42.129Z,77.33
2023-03-30T07:51:13.537Z,74.70
2023-03-30T07:53:41.994Z,75.47
2023-03-30T07:56:10.462Z,81.57
2023-03-30T07:58:39.110Z,80.43
2023-03-30T08:01:07.047Z,80.50
2023-03-30T08:03:34.878Z,82.83
2023-03-30T08:06:05.515Z,84.50
2023-03-30T08:08:38.747Z,81.03
2023-03-30T08:11:06.931Z,82.57
2023-03-30T08:13:34.551Z,78.47
2023-03-30T08:16:02.682Z,80.57
2023-03-30T08:18:30.423Z,77.30
2023-03-30T08:20:58.135Z,79.33
2023-03-30T08:23:25.887Z,78.87
2023-03-30T08:25:57.768Z,78.60
2023-03-30T08:28:25.874Z,77.87
2023-03-30T08:30:54.567Z,81.90
2023-03-30T08:33:22.997Z,77.10
2023-03-30T08:35:51.300Z,75.30
2023-03-30T08:38:19.594Z,81.33
2023-03-30T08:40:49.645Z,82.50
2023-03-30T08:43:32.722Z,78.70
2023-03-30T08:46:01.695Z,79.90
2023-03-30T08:48:32.421Z,79.20
2023-03-30T08:51:03.435Z,77.10
2023-03-30T08:53:34.649Z,80.33
2023-03-30T08:56:07.782Z,75.53
2023-03-30T08:58:45.388Z,72.63
2023-03-30T09:01:19.803Z,69.67
2023-03-30T09:04:06.427Z,70.80
2023-03-30T09:06:46.883Z,73.13
2023-03-30T09:09:17.863Z,69.30
2023-03-30T09:11:47.663Z,67.20
2023-03-30T09:14:30.129Z,71.40
2023-03-30T09:17:02.373Z,69.57
2023-03-30T09:19:36.368Z,64.70
2023-03-30T09:22:07.021Z,66.40
2023-03-30T09:24:35.658Z,64.87
2023-03-30T09:27:10.820Z,63.23
2023-03-30T09:29:47.573Z,62.70
2023-03-30T09:32:25.666Z,63.23
2023-03-30T09:35:00.235Z,63.73
2023-03-30T09:37:29.824Z,68.40
2023-03-30T09:39:58.997Z,64.60
2023-03-30T09:42:34.907Z,62.70
2023-03-30T09:45:12.658Z,67.20
2023-03-30T09:47:42.400Z,65.37
2023-03-30T09:50:12.278Z,62.00
2023-03-30T09:52:41.678Z,62.80
2023-03-30T09:55:34.353Z,58.97
2023-03-30T09:58:13.671Z,57.00
2023-03-30T10:00:42.971Z,60.13
2023-03-30T10:03:21.826Z,59.60
2023-03-30T10:06:03.122Z,58.47
2023-03-30T10:08:31.304Z,56.97
2023-03-30T10:11:01.202Z,57.93
2023-03-30T10:13:33.316Z,57.10
2023-03-30T10:16:07.833Z,54.27
2023-03-30T10:18:41.685Z,53.70
2023-03-30T10:21:19.371Z,54.73
2023-03-30T10:23:59.392Z,53.93
2023-03-30T10:26:30.583Z,51.90
2023-03-30T10:29:03.181Z,48.60
2023-03-30T10:31:36.715Z,45.53
2023-03-30T10:34:06.525Z,47.00
2023-03-30T10:36:40.548Z,48.10
2023-03-30T10:39:14.436Z,48.23
2023-03-30T10:41:43.262Z,48.53
2023-03-30T10:44:23.404Z,48.80
2023-03-30T10:46:55.757Z,47.80
2023-03-30T10:49:38.567Z,44.60
2023-03-30T10:52:13.679Z,46.50
2023-03-30T10:54:46.080Z,46.53
2023-03-30T10:57:16.681Z,46.27
2023-03-30T11:00:18.307Z,46.90
2023-03-30T11:02:55.600Z,45.27
2023-03-30T11:05:32.405Z,44.03
2023-03-30T11:08:05.083Z,43.57
2023-03-30T11:10:36.767Z,43.60
2023-03-30T11:13:07.129Z,42.10
2023-03-30T11:15:40.508Z,41.90
2023-03-30T11:18:15.101Z,41.67
2023-03-30T11:20:47.028Z,41.30
2023-03-30T11:23:21.443Z,39.70
2023-03-30T11:25:58.926Z,38.57
2023-03-30T11:28:53.947Z,39.00
2023-03-30T11:31:40.193Z,39.10
2023-03-30T11:34:20.406Z,38.50
2023-03-30T11:36:55.942Z,38.93
2023-03-30T11:39:32.628Z,38.50
2023-03-30T11:42:08.328Z,38.40
2023-03-30T11:44:36.139Z,38.20
2023-03-30T11:47:18.394Z,38.00
2023-03-30T11:50:02.228Z,38.67
2023-03-30T11:52:34.391Z,36.30
2023-03-30T11:55:19.207Z,35.80
2023-03-30T11:57:54.041Z,34.80
2023-03-30T12:00:32.268Z,35.23
2023-03-30T12:03:14.252Z,34.90
2023-03-30T12:05:47.188Z,35.17
2023-03-30T12:08:30.688Z,35.33
2023-03-30T12:11:07.384Z,35.70
2023-03-30T12:13:44.777Z,33.40
2023-03-30T12:16:25.592Z,35.67
2023-03-30T12:19:06.256Z,35.10
2023-03-30T12:21:42.372Z,34.13
2023-03-30T12:24:17.844Z,34.60
2023-03-30T12:26:58.237Z,33.73
2023-03-30T12:32:26.943Z,31.93
2023-03-30T12:34:58.249Z,31.50
2023-03-30T12:37:33.559Z,32.70
2023-03-30T12:40:06.715Z,32.90
2023-03-30T12:42:36.602Z,32.13
2023-03-30T12:45:21.147Z,30.70
2023-03-30T12:48:04.234Z,31.43
2023-03-30T12:50:39.492Z,30.70
2023-03-30T12:53:25.959Z,30.47
2023-03-30T12:56:04.517Z,30.10
2023-03-30T12:59:13.856Z,30.53
2023-03-30T13:02:06.281Z,29.93
2023-03-30T13:04:37.578Z,31.23
2023-03-30T13:07:07.895Z,30.20
2023-03-30T13:09:54.717Z,29.13
2023-03-30T13:12:31.250Z,28.60
2023-03-30T13:15:02.116Z,28.70
2023-03-30T13:17:48.980Z,28.13
2023-03-30T13:20:28.236Z,28.90
2023-03-30T13:23:06.416Z,28.33
2023-03-30T13:25:45.530Z,28.43
2023-03-30T13:28:35.346Z,27.47
2023-03-30T13:31:13.494Z,27.23
2023-03-30T13:33:47.035Z,28.60
2023-03-30T13:36:18.826Z,28.40
2023-03-30T13:39:13.556Z,26.80
2023-03-30T13:41:58.130Z,27.13
2023-03-30T13:44:42.008Z,29.00
2023-03-30T13:47:28.524Z,28.10
2023-03-30T13:50:00.687Z,27.53
2023-03-30T13:52:33.039Z,27.10
2023-03-30T13:55:02.945Z,28.20
2023-03-30T13:57:37.170Z,27.77
2023-03-30T14:00:24.660Z,26.90
2023-03-30T14:02:52.803Z,27.50
2023-03-30T14:05:23.058Z,24.77
2023-03-30T14:07:55.131Z,26.83
2023-03-30T14:10:22.968Z,27.07
2023-03-30T14:12:55.898Z,27.67
2023-03-30T14:15:26.915Z,27.37
2023-03-30T14:17:56.760Z,27.20
2023-03-30T14:20:53.018Z,26.00
2023-03-30T14:23:29.593Z,26.10
2023-03-30T14:25:59.819Z,25.23
2023-03-30T14:28:30.606Z,26.90
2023-03-30T14:30:59.649Z,25.83
2023-03-30T14:33:27.830Z,26.40
2023-03-30T14:35:57.361Z,26.00
2023-03-30T14:38:28.290Z,25.03
2023-03-30T14:40:56.190Z,26.23
2023-03-30T14:43:26.662Z,25.50
2023-03-30T14:45:58.852Z,27.73
2023-03-30T14:48:31.857Z,26.43
2023-03-30T14:51:00.062Z,26.20
2023-03-30T14:53:30.092Z,24.97
2023-03-30T14:56:00.618Z,26.50
2023-03-30T14:58:31.699Z,25.97
2023-03-30T15:01:09.259Z,26.33
2023-03-30T15:03:39.579Z,26.60
2023-03-30T15:06:09.173Z,27.07
2023-03-30T15:08:40.280Z,27.00
2023-03-30T15:11:10.759Z,27.10
2023-03-30T15:13:41.730Z,27.57
2023-03-30T15:16:16.633Z,27.80
2023-03-30T15:18:44.716Z,27.07
2023-03-30T15:21:14.662Z,27.93
2023-03-30T15:23:45.959Z,28.90
2023-03-30T15:26:13.934Z,27.67
2023-03-30T15:28:46.610Z,27.23
2023-03-30T15:31:16.516Z,27.07
2023-03-30T15:33:46.353Z,29.57
2023-03-30T15:36:18.391Z,27.90
2023-03-30T15:38:50.492Z,26.77
2023-03-30T15:41:22.279Z,27.33
2023-03-30T15:43:57.841Z,25.57
2023-03-30T15:46:28.847Z,26.23
2023-03-30T15:49:00.167Z,27.83
2023-03-30T15:51:33.031Z,28.10
2023-03-30T15:54:04.051Z,29.90
2023-03-30T15:56:35.630Z,28.40
2023-03-30T15:59:03.442Z,28.60
2023-03-30T16:01:50.060Z,30.00
2023-03-30T16:04:19.685Z,29.47
2023-03-30T16:06:47.586Z,29.40
2023-03-30T16:09:15.800Z,28.50
2023-03-30T16:11:45.015Z,29.80
2023-03-30T16:14:15.748Z,30.13
2023-03-30T16:16:44.995Z,29.27
2023-03-30T16:19:13.476Z,28.83
2023-03-30T16:21:42.514Z,30.87
2023-03-30T16:24:11.692Z,27.87
2023-03-30T16:26:39.322Z,29.27
2023-03-30T16:29:12.009Z,28.43
2023-03-30T16:31:39.938Z,28.77
2023-03-30T16:34:08.931Z,27.70
2023-03-30T16:36:36.537Z,28.70
2023-03-30T16:39:05.771Z,29.70
2023-03-30T16:41:33.441Z,29.80
2023-03-30T16:44:01.153Z,29.87
2023-03-30T16:46:28.821Z,30.00
2023-03-30T16:48:56.605Z,30.60
2023-03-30T16:51:25.668Z,31.40
2023-03-30T16:53:53.417Z,33.50
2023-03-30T16:56:21.640Z,31.10
2023-03-30T16:58:49.222Z,31.77
2023-03-30T17:01:18.645Z,32.00
2023-03-30T17:03:47.098Z,32.27
2023-03-30T17:06:16.820Z,32.63
2023-03-30T17:08:46.045Z,30.90
2023-03-30T17:11:15.020Z,33.40
2023-03-30T17:13:43.489Z,32.10
2023-03-30T17:16:13.166Z,30.30
2023-03-30T17:18:40.936Z,32.47
2023-03-30T17:21:10.517Z,30.20
2023-03-30T17:23:38.125Z,31.53
2023-03-30T17:26:07.692Z,32.77
2023-03-30T17:28:38.235Z,32.87
2023-03-30T17:31:11.047Z,32.80
2023-03-30T17:33:39.087Z,33.10
2023-03-30T17:36:13.733Z,32.77
2023-03-30T17:38:43.461Z,32.03
2023-03-30T17:41:14.545Z,31.57
2023-03-30T17:43:43.367Z,32.80
2023-03-30T17:46:12.321Z,31.60
2023-03-30T17:48:40.140Z,32.77
2023-03-30T17:51:08.324Z,34.00
2023-03-30T17:53:36.907Z,33.73
2023-03-30T17:56:05.124Z,34.03
2023-03-30T17:58:35.761Z,32.93
2023-03-30T18:01:05.516Z,35.00
2023-03-30T18:03:34.002Z,33.00
2023-03-30T18:06:02.981Z,32.80
2023-03-30T18:08:31.310Z,32.57
2023-03-30T18:11:00.343Z,33.20
2023-03-30T18:13:30.433Z,33.10
2023-03-30T18:16:01.206Z,35.23
2023-03-30T18:18:30.794Z,32.87
2023-03-30T18:21:02.442Z,32.60
2023-03-30T18:23:31.394Z,32.33
2023-03-30T18:25:59.040Z,32.47
2023-03-30T18:28:28.322Z,33.67
2023-03-30T18:30:57.568Z,32.93
2023-03-30T18:33:27.082Z,34.63
2023-03-30T18:35:56.686Z,35.17
2023-03-30T18:38:25.522Z,32.27
2023-03-30T18:40:57.738Z,32.93
2023-03-30T18:43:26.947Z,33.33
2023-03-30T18:46:02.472Z,34.90
2023-03-30T18:48:31.918Z,32.87
2023-03-30T18:50:59.596Z,32.63
2023-03-30T18:53:28.525Z,33.60
2023-03-30T18:55:58.396Z,34.63
2023-03-30T18:58:27.712Z,34.43
2023-03-30T19:00:56.133Z,34.83
2023-03-30T19:03:24.763Z,34.20
2023-03-30T19:05:54.126Z,36.20
2023-03-30T19:08:23.408Z,34.60
2023-03-30T19:10:52.731Z,35.03
2023-03-30T19:13:21.883Z,33.73
2023-03-30T19:15:50.715Z,34.10
2023-03-30T19:18:19.022Z,34.83
2023-03-30T19:20:49.250Z,36.43
2023-03-30T19:23:18.811Z,34.53
2023-03-30T19:25:48.754Z,34.73
2023-03-30T19:28:18.403Z,35.87
2023-03-30T19:30:46.764Z,35.27
2023-03-30T19:33:16.511Z,36.00
2023-03-30T19:35:45.717Z,34.97
2023-03-30T19:38:13.539Z,34.77
2023-03-30T19:40:44.219Z,36.10
2023-03-30T19:43:12.165Z,35.87
2023-03-30T19:45:41.920Z,38.90
2023-03-30T19:48:10.643Z,36.47
2023-03-30T19:50:40.629Z,37.93
2023-03-30T19:53:08.834Z,37.27
2023-03-30T19:55:37.613Z,37.30
2023-03-30T19:58:07.103Z,35.90
2023-03-30T20:00:34.877Z,36.00
2023-03-30T20:03:02.753Z,37.03
2023-03-30T20:05:30.463Z,36.37
2023-03-30T20:07:58.761Z,35.23
2023-03-30T20:10:27.025Z,37.90
2023-03-30T20:12:54.856Z,35.90
2023-03-30T20:15:26.032Z,36.70
2023-03-30T20:17:56.507Z,37.33
2023-03-30T20:20:26.191Z,37.77
2023-03-30T20:22:56.230Z,36.03
2023-03-30T20:25:24.649Z,36.27
2023-03-30T20:27:52.605Z,39.27
2023-03-30T20:30:21.351Z,38.07
2023-03-30T20:33:06.314Z,39.00
2023-03-30T20:35:36.961Z,37.90
2023-03-30T20:38:04.803Z,38.13
2023-03-30T20:40:32.928Z,39.03
2023-03-30T20:43:02.141Z,39.20
2023-03-30T20:45:30.567Z,39.57
2023-03-30T20:48:06.020Z,38.77
2023-03-30T20:50:34.584Z,39.10
2023-03-30T20:53:02.607Z,38.23
2023-03-30T20:55:30.226Z,40.40
2023-03-30T20:57:57.799Z,40.80
2023-03-30T21:00:25.596Z,40.83
2023-03-30T21:02:53.257Z,38.63
2023-03-30T21:05:22.374Z,39.00
2023-03-30T21:07:50.077Z,40.07
2023-03-30T21:10:17.959Z,40.90
2023-03-30T21:12:45.611Z,39.37
2023-03-30T21:15:14.019Z,40.67
2023-03-30T21:17:41.718Z,42.33
2023-03-30T21:20:11.042Z,40.50
2023-03-30T21:22:40.073Z,38.70
2023-03-30T21:25:08.217Z,40.50
2023-03-30T21:27:36.434Z,39.97
2023-03-30T21:30:04.480Z,42.60
2023-03-30T21:32:32.137Z,41.27
2023-03-30T21:34:59.829Z,41.07
2023-03-30T21:37:27.452Z,41.33
2023-03-30T21:39:56.425Z,41.70
2023-03-30T21:42:24.042Z,42.53
2023-03-30T21:44:51.689Z,45.53
2023-03-30T21:47:19.475Z,42.13
2023-03-30T21:49:47.148Z,43.17
2023-03-30T21:52:14.781Z,41.50
2023-03-30T21:54:42.542Z,42.00
2023-03-30T21:57:11.937Z,43.13
2023-03-30T21:59:39.956Z,44.07
2023-03-30T22:02:07.864Z,42.47
2023-03-30T22:04:35.692Z,43.63
2023-03-30T22:07:03.348Z,44.93
2023-03-30T22:09:31.089Z,42.53
2023-03-30T22:11:58.689Z,42.30
2023-03-30T22:14:27.786Z,43.50
2023-03-30T22:16:55.450Z,44.60
2023-03-30T22:19:24.488Z,44.20
2023-03-30T22:21:53.050Z,42.40
2023-03-30T22:24:21.335Z,44.60
2023-03-30T22:26:49.169Z,45.97
2023-03-30T22:29:20.744Z,46.40
2023-03-30T22:31:51.437Z,43.80
2023-03-30T22:34:19.141Z,45.07
2023-03-30T22:36:46.739Z,44.43
2023-03-30T22:39:14.402Z,44.97
2023-03-30T22:41:42.026Z,46.00
2023-03-30T22:44:10.144Z,46.60
2023-03-30T22:46:38.320Z,46.70
2023-03-30T22:49:07.730Z,48.33
2023-03-30T22:51:38.077Z,46.30
2023-03-30T22:54:06.266Z,47.67
2023-03-30T22:56:34.064Z,46.33
2023-03-30T22:59:01.819Z,47.70
2023-03-30T23:01:32.593Z,47.17
2023-03-30T23:04:00.681Z,49.50
2023-03-30T23:06:29.928Z,48.27
2023-03-30T23:08:57.855Z,47.20
2023-03-30T23:11:26.386Z,48.83
2023-03-30T23:13:54.030Z,47.03
2023-03-30T23:16:21.855Z,48.97
2023-03-30T23:18:50.271Z,50.00
2023-03-30T23:21:17.968Z,48.93
2023-03-30T23:23:46.886Z,47.53
2023-03-30T23:26:14.520Z,47.93
2023-03-30T23:28:43.126Z,45.53
2023-03-30T23:31:12.693Z,46.53
2023-03-30T23:33:40.485Z,51.27
2023-03-30T23:36:09.157Z,49.30
2023-03-30T23:38:37.546Z,50.27
2023-03-30T23:41:07.660Z,47.93
2023-03-30T23:43:35.752Z,49.07
2023-03-30T23:46:03.684Z,49.43
2023-03-30T23:48:31.727Z,48.97
2023-03-30T23:50:59.703Z,48.73
2023-03-30T23:53:27.461Z,47.90
2023-03-30T23:55:55.427Z,46.83
2023-03-30T23:58:25.478Z,47.40
